Time;durP1;ratioP1;P1;durP2;ratioP2;P2;SDS_P1;SDS_P2;PMS_P1;PMS_P2;Temp;Humidity;BMP_temperature;BMP_pressure;BME280_temperature;BME280_humidity;BME280_pressure;Samples;Min_cycle;Max_cycle;Signal;HPM_P1;HPM_P2
2021/11/19 00:00:27;;;;;;;;;;;;;;;9.73;100.00;102732.47;5054552;28;19986;-49
2021/11/19 00:02:53;;;;;;;;;;;;;;;9.74;100.00;102734.19;5069961;28;19924;-49
2021/11/19 00:05:20;;;;;;;;;;;;;;;9.78;100.00;102736.66;5054433;28;20383;-49
2021/11/19 00:07:46;;;;;;;;;;;;;;;9.72;100.00;102736.88;5069211;28;19972;-50
2021/11/19 00:10:13;;;;;;;;;;;;;;;9.75;100.00;102734.13;5051451;28;20311;-49
2021/11/19 00:12:40;;;;;;;;;;;;;;;9.72;100.00;102742.13;5066916;28;19959;-53
2021/11/19 00:15:08;;;;;;;;;;;;;;;9.73;100.00;102733.31;5054050;28;19929;-52
2021/11/19 00:17:34;;;;;;;;;;;;;;;9.77;100.00;102737.56;5069311;28;19924;-52
2021/11/19 00:20:02;;;;;;;;;;;;;;;9.73;100.00;102728.06;5053873;28;19951;-48
2021/11/19 00:22:28;;;;;;;;;;;;;;;9.79;100.00;102733.13;5068795;28;19932;-48
2021/11/19 00:24:55;;;;;;;;;;;;;;;9.74;100.00;102734.19;5053714;28;19925;-48
2021/11/19 00:27:22;;;;;;;;;;;;;;;9.73;100.00;102735.09;5068522;28;19951;-49
2021/11/19 00:29:48;;;;;;;;;;;;;;;9.77;100.00;102731.47;5065819;28;20414;-50
2021/11/19 00:32:15;;;;;;;;;;;;;;;9.75;100.00;102730.66;5051376;28;19925;-52
2021/11/19 00:34:42;;;;;;;;;;;;;;;9.77;100.00;102734.09;5068828;28;19925;-46
2021/11/19 00:37:09;;;;;;;;;;;;;;;9.85;100.00;102732.06;5066687;28;19929;-48
2021/11/19 00:39:36;;;;;;;;;;;;;;;9.84;100.00;102742.63;5051691;28;19943;-50
2021/11/19 00:42:05;;;;;;;;;;;;;;;9.82;100.00;102740.06;5053012;28;19925;-48
2021/11/19 00:44:32;;;;;;;;;;;;;;;9.83;100.00;102749.69;5052310;28;20590;-48
2021/11/19 00:46:58;;;;;;;;;;;;;;;9.84;100.00;102743.50;5048477;28;19925;-50
2021/11/19 00:49:27;;;;;;;;;;;;;;;9.84;100.00;102745.28;5053218;28;19925;-49
2021/11/19 00:51:54;;;;;;;;;;;;;;;9.81;100.00;102748.84;5050852;28;19924;-52
2021/11/19 00:54:22;;;;;;;;;;;;;;;9.88;100.00;102742.47;5051502;28;19964;-52
2021/11/19 00:56:51;;;;;;;;;;;;;;;9.91;100.00;102746.78;5053316;28;19982;-51
2021/11/19 00:59:19;;;;;;;;;;;;;;;9.90;100.00;102756.44;5053383;28;19925;-49
2021/11/19 01:01:52;;;;;;;;;;;;;;;9.93;100.00;102761.59;5053168;28;20540;-47
2021/11/19 01:04:20;;;;;;;;;;;;;;;9.89;100.00;102762.59;5051465;28;19987;-51
2021/11/19 01:06:46;;;;;;;;;;;;;;;9.88;100.00;102762.66;5066642;28;19925;-49
2021/11/19 01:09:15;;;;;;;;;;;;;;;9.85;100.00;102758.34;5051794;28;19929;-47
2021/11/19 01:11:42;;;;;;;;;;;;;;;9.86;100.00;102761.81;5053046;28;20303;-48
2021/11/19 01:14:10;;;;;;;;;;;;;;;9.87;100.00;102761.81;5053121;28;20402;-48
2021/11/19 01:16:39;;;;;;;;;;;;;;;9.91;100.00;102773.06;5051603;28;19925;-50
2021/11/19 01:19:11;;;;;;;;;;;;;;;9.90;100.00;102756.44;5067889;28;20387;-50
2021/11/19 01:21:44;;;;;;;;;;;;;;;9.89;100.00;102759.97;5050633;28;19931;-49
2021/11/19 01:24:11;;;;;;;;;;;;;;;9.89;100.00;102759.97;5066755;28;19929;-51
2021/11/19 01:26:39;;;;;;;;;;;;;;;9.88;100.00;102762.66;5066511;28;19952;-52
2021/11/19 01:29:08;;;;;;;;;;;;;;;9.88;100.00;102762.66;5050767;28;19936;-51
2021/11/19 01:31:38;;;;;;;;;;;;;;;9.89;100.00;102753.88;5052610;28;19931;-49
2021/11/19 01:34:04;;;;;;;;;;;;;;;9.91;100.00;102754.66;5067902;28;19931;-51
2021/11/19 01:36:31;;;;;;;;;;;;;;;9.92;100.00;102757.25;5052682;28;20008;-49
2021/11/19 01:38:58;;;;;;;;;;;;;;;9.92;100.00;102756.41;5052814;28;19925;-49
2021/11/19 01:41:27;;;;;;;;;;;;;;;9.93;100.00;102756.34;5067637;28;19987;-51
2021/11/19 01:43:55;;;;;;;;;;;;;;;9.92;100.00;102751.97;5052654;28;19929;-50
2021/11/19 01:46:23;;;;;;;;;;;;;;;9.93;100.00;102748.47;5052492;28;20361;-50
2021/11/19 01:48:50;;;;;;;;;;;;;;;9.95;100.00;102748.41;5052434;28;19929;-49
2021/11/19 01:51:31;;;;;;;;;;;;;;;9.94;100.00;102749.34;5052748;28;19925;-51
2021/11/19 01:54:18;;;;;;;;;;;;;;;9.96;100.00;102737.84;5052431;28;19925;-49
2021/11/19 01:56:47;;;;;;;;;;;;;;;9.96;100.00;102745.72;5052618;28;20865;-51
2021/11/19 01:59:19;;;;;;;;;;;;;;;9.97;100.00;102738.72;5052655;28;19928;-49
2021/11/19 02:01:52;;;;;;;;;;;;;;;9.97;100.00;102738.72;5052367;28;20307;-52
2021/11/19 02:04:20;;;;;;;;;;;;;;;9.98;100.00;102743.91;5052539;28;19925;-50
2021/11/19 02:06:48;;;;;;;;;;;;;;;9.97;100.00;102734.31;5052301;28;20434;-48
2021/11/19 02:09:19;;;;;;;;;;;;;;;10.00;100.00;102735.13;5052331;28;19931;-50
2021/11/19 02:12:00;;;;;;;;;;;;;;;9.98;100.00;102730.78;5051075;28;20437;-49
2021/11/19 02:14:36;;;;;;;;;;;;;;;9.95;100.00;102732.63;5052248;28;19925;-52
2021/11/19 02:17:03;;;;;;;;;;;;;;;9.97;100.00;102736.94;5067387;28;19932;-47
2021/11/19 02:19:31;;;;;;;;;;;;;;;9.98;100.00;102727.31;5052415;28;19983;-47
2021/11/19 02:22:01;;;;;;;;;;;;;;;9.98;100.00;102722.88;5067102;28;20354;-51
2021/11/19 02:24:28;;;;;;;;;;;;;;;10.00;100.00;102729.88;5049843;28;19932;-48
2021/11/19 02:27:00;;;;;;;;;;;;;;;10.04;100.00;102726.22;5051062;28;19932;-47
2021/11/19 02:29:28;;;;;;;;;;;;;;;10.06;100.00;102725.28;5067514;28;20019;-46
2021/11/19 02:31:59;;;;;;;;;;;;;;;10.06;100.00;102729.66;5051036;28;19932;-46
2021/11/19 02:34:28;;;;;;;;;;;;;;;10.02;100.00;102728.91;5051914;28;19928;-46
2021/11/19 02:37:07;;;;;;;;;;;;;;;10.02;100.00;102726.28;5067358;28;19925;-44
2021/11/19 02:39:35;;;;;;;;;;;;;;;10.02;100.00;102725.41;5052025;28;19952;-46
2021/11/19 02:42:06;;;;;;;;;;;;;;;10.06;100.00;102727.03;5049273;28;20391;-45
2021/11/19 02:44:36;;;;;;;;;;;;;;;10.07;100.00;102728.75;5064576;28;19928;-46
2021/11/19 02:47:04;;;;;;;;;;;;;;;10.08;100.00;102730.47;5051253;28;20406;-45
2021/11/19 02:49:31;;;;;;;;;;;;;;;10.08;100.00;102730.47;5064445;28;19929;-52
2021/11/19 02:51:58;;;;;;;;;;;;;;;10.09;100.00;102725.16;5050950;28;19924;-48
2021/11/19 02:54:30;;;;;;;;;;;;;;;10.10;100.00;102726.00;5053414;28;19925;-47
2021/11/19 02:56:57;;;;;;;;;;;;;;;10.08;100.00;102722.59;5051203;28;19947;-48
2021/11/19 02:59:24;;;;;;;;;;;;;;;10.03;100.00;102724.50;5052763;28;19932;-50
2021/11/19 03:01:53;;;;;;;;;;;;;;;10.05;100.00;102728.81;5055166;28;19996;-48
2021/11/19 03:04:24;;;;;;;;;;;;;;;10.08;100.00;102733.97;5053958;28;19924;-49
2021/11/19 03:06:53;;;;;;;;;;;;;;;10.11;100.00;102735.63;5055245;28;19951;-46
2021/11/19 03:09:21;;;;;;;;;;;;;;;10.10;100.00;102736.53;5055371;28;19933;-45
2021/11/19 03:11:48;;;;;;;;;;;;;;;10.11;100.00;102730.38;5055119;28;19932;-47
2021/11/19 03:14:15;;;;;;;;;;;;;;;10.09;100.00;102734.81;5070449;28;19924;-48
2021/11/19 03:16:43;;;;;;;;;;;;;;;10.10;100.00;102732.16;5054842;28;19968;-49
2021/11/19 03:19:09;;;;;;;;;;;;;;;10.11;100.00;102733.00;5055087;28;19924;-47
2021/11/19 03:21:36;;;;;;;;;;;;;;;10.18;100.00;102731.88;5052919;28;20334;-49
2021/11/19 03:24:03;;;;;;;;;;;;;;;10.18;100.00;102733.66;5051884;28;19925;-46
2021/11/19 03:26:32;;;;;;;;;;;;;;;10.19;100.00;102725.72;5054553;28;19929;-47
2021/11/19 03:29:01;;;;;;;;;;;;;;;10.15;100.00;102730.19;5054158;28;19952;-49
2021/11/19 03:31:27;;;;;;;;;;;;;;;10.12;100.00;102732.94;5050718;28;19928;-46
2021/11/19 03:33:54;;;;;;;;;;;;;;;10.12;100.00;102729.47;5052186;28;19974;-46
2021/11/19 03:36:21;;;;;;;;;;;;;;;10.11;100.00;102727.75;5054428;28;20020;-46
2021/11/19 03:38:49;;;;;;;;;;;;;;;10.10;100.00;102726.88;5054739;28;19948;-46
2021/11/19 03:41:17;;;;;;;;;;;;;;;10.10;100.00;102718.13;5054557;28;19925;-47
2021/11/19 03:43:46;;;;;;;;;;;;;;;10.13;100.00;102715.41;5054476;28;19925;-49
2021/11/19 03:46:16;;;;;;;;;;;;;;;10.11;100.00;102717.22;5053188;28;19924;-50
2021/11/19 03:48:42;;;;;;;;;;;;;;;10.11;100.00;102719.84;5069649;28;19924;-48
2021/11/19 03:51:11;;;;;;;;;;;;;;;10.16;100.00;102720.56;5069736;28;20398;-50
2021/11/19 03:53:38;;;;;;;;;;;;;;;10.15;100.00;102724.09;5054366;28;20310;-52
2021/11/19 03:56:05;;;;;;;;;;;;;;;10.15;100.00;102729.34;5053059;28;19924;-52
2021/11/19 03:58:32;;;;;;;;;;;;;;;10.14;100.00;102736.41;5051237;28;19987;-46
2021/11/19 04:01:10;;;;;;;;;;;;;;;10.15;100.00;102730.19;5051844;28;20441;-48
2021/11/19 04:03:37;;;;;;;;;;;;;;;10.14;100.00;102725.88;5053620;28;19952;-47
2021/11/19 04:06:04;;;;;;;;;;;;;;;10.14;100.00;102723.25;5069437;28;19925;-46
2021/11/19 04:08:30;;;;;;;;;;;;;;;10.17;100.00;102738.06;5054292;28;19929;-48
2021/11/19 04:10:57;;;;;;;;;;;;;;;10.15;100.00;102734.63;5052852;28;20311;-48
2021/11/19 04:13:24;;;;;;;;;;;;;;;10.14;100.00;102739.03;5069343;28;20015;-46
2021/11/19 04:15:53;;;;;;;;;;;;;;;10.18;100.00;102739.75;5053861;28;19971;-46
2021/11/19 04:18:20;;;;;;;;;;;;;;;10.17;100.00;102743.31;5052687;28;19933;-48
2021/11/19 04:20:47;;;;;;;;;;;;;;;10.19;100.00;102741.50;5053923;28;19936;-47
2021/11/19 04:23:14;;;;;;;;;;;;;;;10.17;100.00;102738.06;5069218;28;20379;-46
2021/11/19 04:25:41;;;;;;;;;;;;;;;10.22;100.00;102737.91;5068917;28;20366;-47
2021/11/19 04:28:07;;;;;;;;;;;;;;;10.22;100.00;102740.53;5052533;28;20350;-46
2021/11/19 04:30:35;;;;;;;;;;;;;;;10.20;100.00;102732.69;5050044;28;20272;-45
2021/11/19 04:33:02;;;;;;;;;;;;;;;10.19;100.00;102738.84;5065110;28;20394;-48
2021/11/19 04:35:30;;;;;;;;;;;;;;;10.22;100.00;102735.28;5052364;28;19931;-46
2021/11/19 04:37:57;;;;;;;;;;;;;;;10.26;100.00;102729.00;5051014;28;19932;-47
2021/11/19 04:40:24;;;;;;;;;;;;;;;10.23;100.00;102735.22;5066298;28;19925;-46
2021/11/19 04:42:51;;;;;;;;;;;;;;;10.23;100.00;102731.75;5052199;28;19929;-46
2021/11/19 04:45:19;;;;;;;;;;;;;;;10.18;100.00;102729.25;5053271;28;19952;-46
2021/11/19 04:47:46;;;;;;;;;;;;;;;10.19;100.00;102723.09;5049604;28;19928;-52
2021/11/19 04:50:13;;;;;;;;;;;;;;;10.18;100.00;102733.66;5067062;28;20372;-51
2021/11/19 04:52:40;;;;;;;;;;;;;;;10.17;100.00;102735.44;5050018;28;19937;-46
2021/11/19 04:55:07;;;;;;;;;;;;;;;10.18;100.00;102731.88;5049947;28;19925;-49
2021/11/19 04:57:33;;;;;;;;;;;;;;;10.19;100.00;102730.13;5052671;28;19958;-49
2021/11/19 05:00:00;;;;;;;;;;;;;;;10.24;100.00;102734.31;5049440;28;19936;-49
2021/11/19 05:02:27;;;;;;;;;;;;;;;10.23;100.00;102732.59;5048223;28;19966;-51
2021/11/19 05:04:54;;;;;;;;;;;;;;;10.19;100.00;102723.09;5053202;28;19924;-46
2021/11/19 05:07:21;;;;;;;;;;;;;;;10.18;100.00;102723.97;5051798;28;19928;-47
2021/11/19 05:09:47;;;;;;;;;;;;;;;10.18;100.00;102729.25;5051715;28;19929;-46
2021/11/19 05:12:16;;;;;;;;;;;;;;;10.19;100.00;102730.13;5051735;28;20010;-49
2021/11/19 05:14:43;;;;;;;;;;;;;;;10.21;100.00;102733.53;5068005;28;19956;-48
2021/11/19 05:17:10;;;;;;;;;;;;;;;10.22;100.00;102735.28;5052352;28;19924;-46
2021/11/19 05:19:37;;;;;;;;;;;;;;;10.22;100.00;102736.13;5052806;28;19978;-50
2021/11/19 05:22:04;;;;;;;;;;;;;;;10.24;100.00;102730.81;5050946;28;20390;-47
2021/11/19 05:24:31;;;;;;;;;;;;;;;10.22;100.00;102741.38;5048911;28;19958;-52
2021/11/19 05:26:58;;;;;;;;;;;;;;;10.23;100.00;102735.22;5052336;28;19928;-50
2021/11/19 05:29:24;;;;;;;;;;;;;;;10.20;100.00;102730.06;5067618;28;19932;-46
2021/11/19 05:31:52;;;;;;;;;;;;;;;10.16;100.00;102731.09;5048165;28;19947;-49
2021/11/19 05:34:18;;;;;;;;;;;;;;;10.21;100.00;102733.53;5050949;28;19929;-49
2021/11/19 05:36:45;;;;;;;;;;;;;;;10.21;100.00;102736.19;5066207;28;19929;-49
2021/11/19 05:39:12;;;;;;;;;;;;;;;10.17;100.00;102735.44;5049818;28;20399;-51
2021/11/19 05:41:39;;;;;;;;;;;;;;;10.25;100.00;102730.78;5052094;28;19932;-47
2021/11/19 05:44:05;;;;;;;;;;;;;;;10.23;100.00;102732.59;5051048;28;19925;-46
2021/11/19 05:46:39;;;;;;;;;;;;;;;10.21;100.00;102734.44;5067654;28;20261;-47
2021/11/19 05:49:07;;;;;;;;;;;;;;;10.20;100.00;102731.81;5051044;28;19931;-46
2021/11/19 05:51:34;;;;;;;;;;;;;;;10.18;100.00;102731.88;5050061;28;19956;-44
2021/11/19 05:54:00;;;;;;;;;;;;;;;10.18;100.00;102726.63;5049844;28;19928;-46
2021/11/19 05:56:27;;;;;;;;;;;;;;;10.17;100.00;102731.94;5051749;28;19932;-46
2021/11/19 05:58:53;;;;;;;;;;;;;;;10.19;100.00;102730.97;5051750;28;19925;-46
2021/11/19 06:01:21;;;;;;;;;;;;;;;10.20;100.00;102732.69;5052362;28;19936;-46
2021/11/19 06:03:48;;;;;;;;;;;;;;;10.20;100.00;102726.56;5052223;28;19928;-47
2021/11/19 06:06:15;;;;;;;;;;;;;;;10.19;100.00;102732.75;5067669;28;19925;-44
2021/11/19 06:08:42;;;;;;;;;;;;;;;10.20;100.00;102723.94;5065244;28;20367;-46
2021/11/19 06:11:14;;;;;;;;;;;;;;;10.20;100.00;102732.69;5048550;28;19933;-49
2021/11/19 06:13:53;;;;;;;;;;;;;;;10.20;100.00;102732.69;5066662;28;19998;-45
2021/11/19 06:16:21;;;;;;;;;;;;;;;10.22;100.00;102736.13;5063145;28;20463;-47
2021/11/19 06:18:49;;;;;;;;;;;;;;;10.21;100.00;102742.31;5066290;28;19924;-47
2021/11/19 06:21:23;;;;;;;;;;;;;;;10.21;100.00;102747.56;5050719;28;19924;-44
2021/11/19 06:23:52;;;;;;;;;;;;;;;10.22;100.00;102743.16;5067564;28;19982;-45
2021/11/19 06:26:20;;;;;;;;;;;;;;;10.25;100.00;102746.56;5052339;28;19925;-46
2021/11/19 06:28:49;;;;;;;;;;;;;;;10.24;100.00;102743.94;5071182;28;19947;-47
2021/11/19 06:31:17;;;;;;;;;;;;;;;10.24;100.00;102749.22;5056006;28;19925;-49
2021/11/19 06:33:44;;;;;;;;;;;;;;;10.26;100.00;102750.03;5056115;28;19931;-50
2021/11/19 06:36:10;;;;;;;;;;;;;;;10.27;100.00;102751.75;5056348;28;19925;-51
2021/11/19 06:38:38;;;;;;;;;;;;;;;10.24;100.00;102749.22;5053891;28;19929;-49
2021/11/19 06:41:04;;;;;;;;;;;;;;;10.20;100.00;102751.09;5068760;28;19947;-50
2021/11/19 06:43:31;;;;;;;;;;;;;;;10.20;100.00;102753.72;5070482;28;19929;-48
2021/11/19 06:45:58;;;;;;;;;;;;;;;10.21;100.00;102757.22;5071347;28;19928;-50
2021/11/19 06:48:26;;;;;;;;;;;;;;;10.23;100.00;102756.25;5054321;28;19931;-50
2021/11/19 06:50:52;;;;;;;;;;;;;;;10.26;100.00;102761.41;5055264;28;20383;-48
2021/11/19 06:53:21;;;;;;;;;;;;;;;10.26;100.00;102769.28;5053499;28;19932;-50
2021/11/19 06:55:48;;;;;;;;;;;;;;;10.24;100.00;102767.63;5054504;28;19932;-48
2021/11/19 06:58:15;;;;;;;;;;;;;;;10.26;100.00;102768.44;5055549;28;19971;-48
2021/11/19 07:00:42;;;;;;;;;;;;;;;10.26;100.00;102773.69;5055859;28;20405;-49
2021/11/19 07:03:09;;;;;;;;;;;;;;;10.23;100.00;102769.41;5055636;28;19952;-47
2021/11/19 07:05:36;;;;;;;;;;;;;;;10.26;100.00;102777.19;5071047;28;19947;-48
2021/11/19 07:08:04;;;;;;;;;;;;;;;10.28;100.00;102778.00;5070741;28;20270;-47
2021/11/19 07:10:31;;;;;;;;;;;;;;;10.30;100.00;102780.56;5053577;28;19970;-50
2021/11/19 07:12:58;;;;;;;;;;;;;;;10.29;100.00;102776.22;5051655;28;19931;-51
2021/11/19 07:15:25;;;;;;;;;;;;;;;10.29;100.00;102777.09;5053343;28;19925;-52
2021/11/19 07:17:51;;;;;;;;;;;;;;;10.34;100.00;102784.81;5051825;28;19982;-47
2021/11/19 07:20:20;;;;;;;;;;;;;;;10.35;100.00;102783.06;5053235;28;19925;-50
2021/11/19 07:22:46;;;;;;;;;;;;;;;10.38;100.00;102789.09;5055155;28;19952;-51
2021/11/19 07:25:14;;;;;;;;;;;;;;;10.37;100.00;102791.78;5054974;28;20040;-52
2021/11/19 07:27:42;;;;;;;;;;;;;;;10.37;100.00;102792.63;5054957;28;19933;-52
2021/11/19 07:30:10;;;;;;;;;;;;;;;10.36;100.00;102796.22;5070114;28;19936;-51
2021/11/19 07:32:37;;;;;;;;;;;;;;;10.38;100.00;102794.38;5054592;28;20295;-48
2021/11/19 07:35:05;;;;;;;;;;;;;;;10.41;100.00;102794.25;5069989;28;19939;-50
2021/11/19 07:37:31;;;;;;;;;;;;;;;10.41;100.00;102791.63;5068954;28;19928;-47
2021/11/19 07:39:58;;;;;;;;;;;;;;;10.43;100.00;102792.44;5051528;28;19928;-49
2021/11/19 07:42:25;;;;;;;;;;;;;;;10.52;100.00;102795.69;5054353;28;19924;-49
2021/11/19 07:44:52;;;;;;;;;;;;;;;10.48;100.00;102801.06;5069927;28;19925;-47
2021/11/19 07:47:19;;;;;;;;;;;;;;;10.47;100.00;102809.84;5054832;28;20012;-51
2021/11/19 07:49:45;;;;;;;;;;;;;;;10.44;100.00;102807.31;5054524;28;19956;-49
2021/11/19 07:52:12;;;;;;;;;;;;;;;10.48;100.00;102815.97;5054630;28;19929;-48
2021/11/19 07:54:38;;;;;;;;;;;;;;;10.47;100.00;102806.34;5054525;28;19925;-49
2021/11/19 07:57:05;;;;;;;;;;;;;;;10.48;100.00;102819.47;5053408;28;19928;-49
2021/11/19 07:59:33;;;;;;;;;;;;;;;10.51;100.00;102815.00;5069326;28;19936;-49
2021/11/19 08:02:00;;;;;;;;;;;;;;;10.52;100.00;102822.84;5051276;28;19929;-51
2021/11/19 08:04:29;;;;;;;;;;;;;;;10.49;100.00;102815.06;5052447;28;19924;-46
2021/11/19 08:06:55;;;;;;;;;;;;;;;10.52;100.00;102822.00;5051763;28;19925;-51
2021/11/19 08:09:23;;;;;;;;;;;;;;;10.54;100.00;102821.03;5052516;28;20433;-51
2021/11/19 08:11:50;;;;;;;;;;;;;;;10.55;100.00;102821.88;5053970;28;19933;-49
2021/11/19 08:14:17;;;;;;;;;;;;;;;10.58;100.00;102817.38;5052994;28;19925;-50
2021/11/19 08:16:45;;;;;;;;;;;;;;;10.57;100.00;102817.44;5069248;28;20407;-53
2021/11/19 08:19:30;;;;;;;;;;;;;;;10.60;100.00;102819.97;5068506;28;19925;-51
2021/11/19 08:21:58;;;;;;;;;;;;;;;10.62;100.00;102820.75;5054041;28;19924;-46
2021/11/19 08:24:26;;;;;;;;;;;;;;;10.60;100.00;102814.69;5053535;28;19994;-46
2021/11/19 08:26:54;;;;;;;;;;;;;;;10.74;100.00;102814.22;5050805;28;19947;-45
2021/11/19 08:29:22;;;;;;;;;;;;;;;10.70;100.00;102809.97;5051941;28;19929;-47
2021/11/19 08:31:49;;;;;;;;;;;;;;;10.67;100.00;102813.56;5053904;28;19932;-48
2021/11/19 08:34:16;;;;;;;;;;;;;;;10.70;100.00;102812.59;5052665;28;19928;-50
2021/11/19 08:36:43;;;;;;;;;;;;;;;10.72;100.00;102819.53;5068980;28;20027;-49
2021/11/19 08:39:10;;;;;;;;;;;;;;;10.71;100.00;102827.50;5053972;28;19924;-52
2021/11/19 08:41:38;;;;;;;;;;;;;;;10.73;100.00;102829.16;5068129;28;19932;-49
2021/11/19 08:44:06;;;;;;;;;;;;;;;10.78;100.00;102831.63;5066935;28;19931;-50
2021/11/19 08:46:35;;;;;;;;;;;;;;;10.83;100.00;102833.19;5051384;28;19924;-50
2021/11/19 08:49:03;;;;;;;;;;;;;;;10.85;100.00;102825.22;5066223;28;20435;-50
2021/11/19 08:51:30;;;;;;;;;;;;;;;10.85;100.00;102830.47;5049479;28;20020;-46
2021/11/19 08:53:58;;;;;;;;;;;;;;;10.92;100.00;102821.47;5052848;28;20419;-45
2021/11/19 08:56:34;;;;;;;;;;;;;;;10.95;100.00;102823.16;5051273;28;20002;-45
2021/11/19 08:59:01;;;;;;;;;;;;;;;10.97;100.00;102824.78;5065688;28;19975;-46
2021/11/19 09:01:28;;;;;;;;;;;;;;;10.97;100.00;102829.22;5052901;28;19924;-48
2021/11/19 09:03:55;;;;;;;;;;;;;;;11.00;100.00;102823.81;5052013;28;20383;-46
2021/11/19 09:06:22;;;;;;;;;;;;;;;11.01;100.00;102827.34;5052237;28;19924;-48
2021/11/19 09:08:49;;;;;;;;;;;;;;;11.03;100.00;102828.13;5050419;28;19986;-46
2021/11/19 09:11:19;;;;;;;;;;;;;;;11.05;100.00;102828.94;5050888;28;19925;-47
2021/11/19 09:13:47;;;;;;;;;;;;;;;11.13;100.00;102829.53;5052673;28;19931;-45
2021/11/19 09:16:14;;;;;;;;;;;;;;;11.14;100.00;102826.00;5052882;28;20384;-46
2021/11/19 09:18:47;;;;;;;;;;;;;;;11.18;100.00;102824.09;5052751;28;19928;-46
2021/11/19 09:21:26;;;;;;;;;;;;;;;11.25;100.00;102823.81;5052874;28;19947;-48
2021/11/19 09:23:55;;;;;;;;;;;;;;;11.25;100.00;102828.22;5052928;28;19928;-46
2021/11/19 09:26:34;;;;;;;;;;;;;;;11.32;100.00;102816.56;5068096;28;20035;-48
2021/11/19 09:29:01;;;;;;;;;;;;;;;11.31;100.00;102828.00;5052808;28;19925;-45
2021/11/19 09:31:28;;;;;;;;;;;;;;;11.36;100.00;102833.97;5052637;28;19932;-49
2021/11/19 09:33:54;;;;;;;;;;;;;;;11.40;100.00;102829.41;5052698;28;20031;-49
2021/11/19 09:36:21;;;;;;;;;;;;;;;11.41;100.00;102831.13;5052888;28;19925;-47
2021/11/19 09:38:48;;;;;;;;;;;;;;;11.39;100.00;102831.19;5049950;28;20429;-52
2021/11/19 09:41:36;;;;;;;;;;;;;;;11.47;100.00;102836.19;5065224;28;19929;-50
2021/11/19 09:44:19;;;;;;;;;;;;;;;11.47;100.00;102829.13;5067822;28;20362;-49
2021/11/19 09:46:56;;;;;;;;;;;;;;;11.50;100.00;102828.16;5051304;28;19952;-47
2021/11/19 09:49:25;;;;;;;;;;;;;;;11.56;100.00;102837.63;5052395;28;19929;-45
2021/11/19 09:52:11;;;;;;;;;;;;;;;11.59;100.00;102838.38;5052386;28;19929;-44
2021/11/19 09:54:46;;;;;;;;;;;;;;;11.62;100.00;102837.41;5051013;28;19929;-45
2021/11/19 09:57:37;;;;;;;;;;;;;;;11.65;100.00;102838.13;5049451;28;19925;-47
2021/11/19 10:00:10;;;;;;;;;;;;;;;11.74;100.00;102846.59;5066778;28;20314;-46
2021/11/19 10:02:46;;;;;;;;;;;;;;;11.73;100.00;102850.16;5053717;28;19935;-46
2021/11/19 10:05:42;;;;;;;;;;;;;;;11.74;100.00;102850.09;5053935;28;19932;-49
2021/11/19 10:08:27;;;;;;;;;;;;;;;11.78;100.00;102853.47;5054824;28;19925;-48
2021/11/19 10:10:59;;;;;;;;;;;;;;;11.89;100.00;102842.50;5053752;28;19924;-49
2021/11/19 10:13:55;;;;;;;;;;;;;;;11.93;100.00;102847.63;5070206;28;19975;-48
2021/11/19 10:16:28;;;;;;;;;;;;;;;11.94;100.00;102838.84;5055665;28;19925;-48
2021/11/19 10:19:04;;;;;;;;;;;;;;;11.96;100.00;102836.97;5071513;28;19978;-50
2021/11/19 10:21:33;;;;;;;;;;;;;;;11.99;100.00;102838.63;5056288;28;19924;-51
2021/11/19 10:24:04;;;;;;;;;;;;;;;12.03;100.00;102840.22;5056364;28;19947;-49
2021/11/19 10:26:34;;;;;;;;;;;;;;;12.03;100.00;102836.75;5069927;28;20354;-47
2021/11/19 10:29:05;;;;;;;;;;;;;;;12.05;100.00;102829.63;5054134;28;20288;-51
2021/11/19 10:31:32;;;;;;;;;;;;;;;12.10;100.00;102835.56;5071263;28;19946;-47
2021/11/19 10:34:08;;;;;;;;;;;;;;;12.11;100.00;102832.03;5054707;28;19924;-49
2021/11/19 10:36:34;;;;;;;;;;;;;;;12.21;100.00;102830.72;5054482;28;19971;-48
2021/11/19 10:39:16;;;;;;;;;;;;;;;12.27;100.00;102825.22;5052982;28;19928;-44
2021/11/19 10:41:46;;;;;;;;;;;;;;;12.34;100.00;102825.81;5054931;28;19929;-46
2021/11/19 10:44:25;;;;;;;;;;;;;;;12.39;100.00;102825.63;5054185;28;19978;-49
2021/11/19 10:47:06;;;;;;;;;;;;;;;12.46;100.00;102817.38;5052167;28;20449;-51
2021/11/19 10:49:38;;;;;;;;;;;;;;;12.52;100.00;102816.28;5070095;28;20334;-51
2021/11/19 10:52:26;;;;;;;;;;;;;;;12.62;100.00;102820.22;5053838;28;20400;-49
2021/11/19 10:55:12;;;;;;;;;;;;;;;12.63;100.00;102827.22;5069248;28;20418;-53
2021/11/19 10:57:59;;;;;;;;;;;;;;;12.68;100.00;102834.97;5055647;28;19925;-51
2021/11/19 11:00:25;;;;;;;;;;;;;;;12.67;100.00;102828.81;5055578;28;19932;-49
2021/11/19 11:02:54;;;;;;;;;;;;;;;12.72;100.00;102830.38;5055461;28;19977;-50
2021/11/19 11:05:37;;;;;;;;;;;;;;;12.75;100.00;102827.63;5055545;28;19932;-49
2021/11/19 11:08:13;;;;;;;;;;;;;;;12.81;100.00;102820.28;5054235;28;19929;-48
2021/11/19 11:11:06;;;;;;;;;;;;;;;12.90;100.00;102815.53;5055537;28;20350;-51
2021/11/19 11:13:32;;;;;;;;;;;;;;;13.03;100.00;102816.72;5053959;28;19931;-53
2021/11/19 11:16:17;;;;;;;;;;;;;;;13.05;100.00;102814.00;5055296;28;19924;-51
2021/11/19 11:18:44;;;;;;;;;;;;;;;13.09;100.00;102826.16;5055469;28;19929;-49
2021/11/19 11:21:18;;;;;;;;;;;;;;;13.13;100.00;102825.06;5053182;28;19964;-48
2021/11/19 11:23:47;;;;;;;;;;;;;;;13.13;100.00;102825.97;5053107;28;19929;-50
2021/11/19 11:26:23;;;;;;;;;;;;;;;13.08;100.00;102835.88;5055183;28;19925;-51
2021/11/19 11:29:08;;;;;;;;;;;;;;;13.07;100.00;102833.28;5053870;28;19925;-53
2021/11/19 11:31:54;;;;;;;;;;;;;;;13.10;100.00;102827.88;5054860;28;19925;-48
2021/11/19 11:34:52;;;;;;;;;;;;;;;13.12;100.00;102826.88;5054711;28;20404;-51
2021/11/19 11:37:24;;;;;;;;;;;;;;;13.08;100.00;102832.38;5054805;28;19994;-52
2021/11/19 11:40:03;;;;;;;;;;;;;;;13.01;100.00;102824.72;5068265;28;20438;-50
2021/11/19 11:42:56;;;;;;;;;;;;;;;13.02;100.00;102821.16;5052584;28;19978;-53
2021/11/19 11:45:33;;;;;;;;;;;;;;;12.94;99.67;102825.91;5053881;28;20292;-51
2021/11/19 11:48:18;;;;;;;;;;;;;;;13.08;99.42;102827.09;5055275;28;20011;-52
2021/11/19 11:51:07;;;;;;;;;;;;;;;13.07;100.00;102826.22;5053106;28;19998;-53
2021/11/19 11:53:46;;;;;;;;;;;;;;;13.06;100.00;102831.56;5068962;28;19929;-53
2021/11/19 11:56:14;;;;;;;;;;;;;;;13.06;99.07;102831.56;5053483;28;19931;-53
2021/11/19 11:58:44;;;;;;;;;;;;;;;13.05;98.46;102830.72;5069522;28;20454;-51
2021/11/19 12:01:29;;;;;;;;;;;;;;;13.04;98.69;102825.50;5052822;28;19979;-49
2021/11/19 12:04:05;;;;;;;;;;;;;;;12.97;98.26;102830.22;5051867;28;19939;-50
2021/11/19 12:06:44;;;;;;;;;;;;;;;13.01;97.89;102831.78;5052569;28;20049;-51
2021/11/19 12:09:11;;;;;;;;;;;;;;;13.11;97.03;102829.59;5069542;28;19925;-51
2021/11/19 12:11:49;;;;;;;;;;;;;;;13.18;97.54;102828.38;5054330;28;19925;-50
2021/11/19 12:14:22;;;;;;;;;;;;;;;13.31;96.78;102826.06;5054450;28;19989;-48
2021/11/19 12:17:00;;;;;;;;;;;;;;;13.34;96.79;102823.28;5054497;28;19924;-53
2021/11/19 12:19:34;;;;;;;;;;;;;;;13.29;95.87;102823.50;5067817;28;19929;-51
2021/11/19 12:22:01;;;;;;;;;;;;;;;13.28;95.59;102824.41;5050822;28;19951;-51
2021/11/19 12:24:48;;;;;;;;;;;;;;;13.25;95.30;102816.63;5052950;28;19971;-51
2021/11/19 12:27:25;;;;;;;;;;;;;;;13.25;95.22;102819.28;5067164;28;19925;-51
2021/11/19 12:30:10;;;;;;;;;;;;;;;13.20;95.85;102813.34;5067669;28;19925;-48
2021/11/19 12:32:39;;;;;;;;;;;;;;;13.23;95.50;102810.53;5054053;28;19928;-50
2021/11/19 12:35:10;;;;;;;;;;;;;;;13.20;95.59;102810.69;5069017;28;19929;-48
2021/11/19 12:37:46;;;;;;;;;;;;;;;13.21;94.95;102809.78;5068848;28;19925;-50
2021/11/19 12:40:15;;;;;;;;;;;;;;;13.06;94.48;102795.47;5053782;28;19979;-53
2021/11/19 12:42:55;;;;;;;;;;;;;;;13.08;95.09;102817.38;5053663;28;20316;-48
2021/11/19 12:45:26;;;;;;;;;;;;;;;12.98;95.18;102816.09;5051740;28;19951;-49